Flight Track Log - Related Links

Times and Time Zones

All times are in EDT time to prevent confusion due to time zone crossing. See the SWA896 flight status page for this flight to view local times or setup timezone preferences in your user account.

Time Position Orientation Groundspeed Altitude Reporting Facility
EDT Latitude Longitude Course Direction KTS MPH feet Rate Location/Type
Wed 01:53:54 PM 36.1047 -115.1508 315° West 153 176 3,200  Level Los Angeles Center
Wed 01:54:42 PM 36.1283 -115.1803 315° West 195 224 4,700 1,952 Climbing Los Angeles Center
Wed 01:55:17 PM 36.1228 -115.2072 256° West 229 264 5,900 2,754 Climbing Los Angeles Center
Wed 01:55:43 PM 36.1128 -115.2572 256° West 239 275 7,500 3,484 Climbing Los Angeles Center
Wed 01:56:19 PM 36.0919 -115.2983 238° Southwest 242 278 9,500 2,449 Climbing Los Angeles Center
Wed 01:57:21 PM 36.0600 -115.3919 247° West 292 336 11,500 2,613 Climbing Los Angeles Center
Wed 01:58:23 PM 36.0292 -115.5006 251° West 326 375 14,900 2,806 Climbing Los Angeles Center
Wed 01:59:25 PM 35.9936 -115.6225 250° West 362 417 17,300 2,371 Climbing Los Angeles Center
Wed 02:00:27 PM 35.9572 -115.7561 251° West 381 438 19,800 2,160 Climbing Los Angeles Center
Wed 02:01:30 PM 35.9844 -115.8706 286° West 369 425 21,800 1,968 Climbing Los Angeles Center
Wed 02:02:32 PM 36.0558 -115.9772 310° West 374 430 23,900 1,935 Climbing Los Angeles Center
Wed 02:03:34 PM 36.1253 -116.0853 309° West 377 434 25,800 1,839 Climbing Los Angeles Center
Wed 02:04:36 PM 36.1950 -116.1853 311° West 383 441 27,700 2,081 Climbing Los Angeles Center
Wed 02:05:38 PM 36.2617 -116.2856 310° West 385 443 30,100 1,824 Climbing Los Angeles Center
Wed 02:06:41 PM 36.3261 -116.3828 309° West 374 430 31,500 1,161 Climbing Los Angeles Center
Wed 02:07:42 PM 36.3914 -116.4817 309° West 372 428 32,500 927 Climbing Los Angeles Center
Wed 02:08:44 PM 36.4619 -116.5869 310° West 391 450 33,400 726 Climbing Los Angeles Center
Wed 02:09:46 PM 36.5353 -116.7011 309° West 405 466 34,000 288 Climbing Los Angeles Center
Wed 02:10:49 PM 36.6397 -116.8056 321° Northwest 406 467 34,000  Level Los Angeles Center
Wed 02:11:51 PM 36.7353 -116.8761 329° Northwest 400 460 34,000 145 Level Los Angeles Center
Wed 02:12:53 PM 36.8297 -116.9489 328° Northwest 399 459 34,300 823 Climbing Los Angeles Center
Wed 02:13:55 PM 36.9236 -117.0197 329° Northwest 394 453 35,700 1,186 Climbing Los Angeles Center
Wed 02:14:19 PM 36.9594 -117.0494 326° Northwest 392 451 36,000 212 Climbing Oakland Center
Wed 02:15:20 PM 37.0547 -117.1222 329° Northwest 396 456 36,000  Level Oakland Center
Wed 02:16:22 PM 37.1508 -117.1978 328° Northwest 405 466 36,000  Level Oakland Center
Wed 02:17:23 PM 37.2453 -117.2714 328° Northwest 400 460 36,000  Level Oakland Center
Wed 02:18:25 PM 37.3456 -117.3778 320° Northwest 402 463 36,000  Level Oakland Center
Wed 02:19:26 PM 37.4167 -117.4856 310° West 400 460 36,000  Level Oakland Center
Wed 02:20:28 PM 37.4867 -117.5919 310° West 396 456 36,000  Level Oakland Center
Wed 02:21:29 PM 37.5578 -117.7000 310° West 396 456 36,000  Level Oakland Center
Wed 02:22:31 PM 37.6292 -117.8086 310° West 400 460 36,000  Level Oakland Center
Wed 02:23:32 PM 37.7011 -117.9197 309° West 405 466 36,000  Level Oakland Center
Wed 02:24:34 PM 37.7736 -118.0303 310° West 405 466 36,000  Level Oakland Center
Wed 02:25:35 PM 37.8456 -118.1419 309° West 408 470 36,000 -146 Level Oakland Center
Wed 02:26:37 PM 37.9158 -118.2503 309° West 400 460 35,700 -634 Descending Oakland Center
Wed 02:27:38 PM 37.9861 -118.3581 310° West 396 456 34,700 -976 Descending Oakland Center
Wed 02:28:40 PM 38.0539 -118.4644 309° West 390 449 33,700 -1,073 Descending Oakland Center
Wed 02:29:41 PM 38.1317 -118.5869 309° West 372 428 32,500 -976 Descending Oakland Center
Wed 02:30:43 PM 38.1936 -118.6839 309° West 379 436 31,700 -878 Descending Oakland Center
Wed 02:31:44 PM 38.2608 -118.7892 309° West 382 440 30,700 -836 Descending Oakland Center
Wed 02:32:45 PM 38.3303 -118.8969 309° West 391 450 30,000 -341 Descending Oakland Center
Wed 02:33:47 PM 38.3994 -119.0075 309° West 398 458 30,000  Level Oakland Center
Wed 02:34:48 PM 38.4678 -119.1158 309° West 395 455 30,000  Level Oakland Center
Wed 02:35:50 PM 38.5517 -119.2497 309° West 398 458 30,000  Level Oakland Center
Wed 02:36:51 PM 38.6208 -119.3597 309° West 398 458 30,000  Level Oakland Center
Wed 02:37:53 PM 38.6856 -119.4728 306° West 397 457 30,000  Level Oakland Center
Wed 02:38:54 PM 38.7161 -119.6139 286° West 410 472 30,000 -195 Level Oakland Center
Wed 02:39:56 PM 38.7444 -119.7547 285° West 408 470 29,600 -1,512 Descending Oakland Center
Wed 02:40:57 PM 38.7728 -119.8875 285° West 414 476 26,900 -3,000 Descending Oakland Center
Wed 02:41:58 PM 38.8031 -120.0328 285° West 423 487 23,500 -3,366 Descending Oakland Center
Wed 02:43:00 PM 38.8347 -120.1961 284° West 399 459 20,000 -2,488 Descending Oakland Center
Wed 02:44:01 PM 38.8606 -120.3300 284° West 390 449 18,400 -1,869 Descending Oakland Center
Wed 02:45:02 PM 38.8881 -120.4614 285° West 385 443 16,200 -1,171 Descending Oakland Center
Wed 02:46:04 PM 38.9119 -120.5889 284° West 372 428 16,000 -98 Descending Oakland Center
Wed 02:47:05 PM 38.9206 -120.7231 275° West 390 449 16,000 -1,033 Level Oakland Center
Wed 02:48:06 PM 38.9147 -120.8603 267° West 388 447 13,900 -2,293 Descending Oakland Center
Wed 02:49:08 PM 38.9092 -120.9978 267° West 390 449 11,300 -1,902 Descending Oakland Center
Wed 02:50:09 PM 38.9031 -121.1292 267° West 376 433 10,000 -765 Descending Oakland Center
Wed 02:50:50 PM 38.9000 -121.2500 268° West 350 403 10,000 -653 Level Northern Cal TRACON
Wed 02:51:50 PM 38.9000 -121.3500 270° West 289 333 8,900 -1,400 Descending Northern Cal TRACON
Wed 02:52:50 PM 38.8833 -121.4500 258° West 298 343 7,200 -1,526 Descending Northern Cal TRACON
Wed 02:53:44 PM 38.8667 -121.5333 256° West 293 337 6,000 -1,211 Descending Northern Cal TRACON
Wed 02:54:44 PM 38.8500 -121.6333 258° West 288 331 4,900 -1,174 Descending Northern Cal TRACON
Wed 02:55:16 PM 38.8367 -121.6708 245° Southwest 294 338 4,200 -1,226 Descending Oakland Center
Wed 02:56:17 PM 38.7658 -121.6928 194° South 291 335 3,000 -634 Descending Oakland Center
Wed 02:57:19 PM 38.6908 -121.6844 175° South 275 316 2,900 -390 Descending Oakland Center
Wed 02:58:20 PM 38.6267 -121.6569 161° South 218 251 2,200 -885 Descending Oakland Center
Wed 02:59:21 PM 38.6275 -121.6033 89° East 172 198 1,100 -929 Descending Oakland Center
Wed 02:59:44 PM 38.6500 -121.6000 North 149 171 900 -714 Descending Northern Cal TRACON
Wed 03:00:45 PM 38.6833 -121.6000 360° North 136 157 100 -787 Descending Northern Cal TRACON

Login

Don't have an account? Register now (free) for customized features, flight alerts, and more!